Time;durP1;ratioP1;P1;durP2;ratioP2;P2;SDS_P1;SDS_P2;PMS_P1;PMS_P2;Temp;Humidity;BMP_temperature;BMP_pressure;BME280_temperature;BME280_humidity;BME280_pressure;Samples;Min_cycle;Max_cycle;Signal;HPM_P1;HPM_P2
2024/02/05 00:00:09;;;;;;;1.85;0.70;;;;;;;11.92;100.00;100045.25;5031520;28;20060;-46
2024/02/05 00:02:40;;;;;;;2.35;0.90;;;;;;;11.94;100.00;100049.50;5031488;28;20124;-45
2024/02/05 00:05:10;;;;;;;2.67;0.80;;;;;;;11.98;100.00;100050.16;5031696;28;20041;-44
2024/02/05 00:07:39;;;;;;;3.75;1.08;;;;;;;11.99;100.00;100044.72;5031397;28;20041;-44
2024/02/05 00:10:08;;;;;;;1.40;0.80;;;;;;;12.06;100.00;100033.56;5031517;28;20053;-46
2024/02/05 00:12:37;;;;;;;3.50;0.80;;;;;;;12.03;100.00;100038.19;5031596;28;20402;-43
2024/02/05 00:15:07;;;;;;;1.35;0.75;;;;;;;12.04;100.00;100042.56;5032059;28;20550;-45
2024/02/05 00:17:35;;;;;;;1.58;0.70;;;;;;;11.99;100.00;100026.00;5032181;28;20065;-47
2024/02/05 00:20:08;;;;;;;1.63;0.90;;;;;;;12.01;100.00;100033.91;5032424;28;20409;-45
2024/02/05 00:22:36;;;;;;;2.33;0.95;;;;;;;12.11;100.00;100034.13;5032204;28;20049;-48
2024/02/05 00:25:06;;;;;;;1.67;0.80;;;;;;;12.05;100.00;100022.03;5031067;28;20526;-45
2024/02/05 00:27:35;;;;;;;1.63;1.00;;;;;;;12.00;100.00;100022.38;5031240;28;20089;-44
2024/02/05 00:30:04;;;;;;;1.70;0.90;;;;;;;11.99;100.00;100030.50;5031060;28;20045;-43
2024/02/05 00:32:32;;;;;;;1.48;0.80;;;;;;;12.07;100.00;100038.00;5031064;28;20523;-44
2024/02/05 00:35:01;;;;;;;1.00;0.77;;;;;;;11.98;100.00;100034.13;5031057;28;20064;-44
2024/02/05 00:37:31;;;;;;;1.45;0.90;;;;;;;12.02;100.00;100036.47;5030807;28;20136;-43
2024/02/05 00:40:00;;;;;;;3.03;0.98;;;;;;;12.03;100.00;100038.19;5030701;28;20464;-46
2024/02/05 00:42:28;;;;;;;2.17;0.90;;;;;;;12.00;100.00;100025.03;5030966;28;20053;-44
2024/02/05 00:44:56;;;;;;;1.75;1.00;;;;;;;11.94;100.00;100028.13;5031231;28;20060;-43
2024/02/05 00:47:26;;;;;;;2.35;0.90;;;;;;;12.03;100.00;100035.50;5030857;28;20437;-44
2024/02/05 00:49:54;;;;;;;2.80;1.02;;;;;;;12.01;100.00;100044.59;5031111;28;20077;-44
2024/02/05 00:52:23;;;;;;;1.60;1.05;;;;;;;12.03;100.00;100048.88;5030805;28;20053;-46
2024/02/05 00:54:52;;;;;;;2.70;1.00;;;;;;;12.07;100.00;100044.19;5032412;28;20482;-43
2024/02/05 00:57:21;;;;;;;1.98;1.10;;;;;;;12.10;100.00;100040.44;5034971;28;20048;-45
2024/02/05 00:59:49;;;;;;;1.20;0.70;;;;;;;12.09;100.00;100036.06;5034863;28;20064;-44
2024/02/05 01:02:18;;;;;;;1.52;0.80;;;;;;;11.98;100.00;100028.78;5034787;28;20544;-44
2024/02/05 01:04:46;;;;;;;1.85;1.00;;;;;;;11.85;100.00;100039.44;5034801;28;20054;-47
2024/02/05 01:07:15;;;;;;;1.48;0.88;;;;;;;11.93;100.00;100045.13;5034521;28;20083;-43
2024/02/05 01:09:44;;;;;;;1.60;0.90;;;;;;;11.91;100.00;100049.72;5034664;28;20045;-44
2024/02/05 01:12:13;;;;;;;1.67;0.70;;;;;;;11.87;100.00;100039.34;5034741;28;20049;-43
2024/02/05 01:14:42;;;;;;;1.63;0.90;;;;;;;11.80;100.00;100041.59;5034280;28;20072;-44
2024/02/05 01:17:11;;;;;;;0.95;0.57;;;;;;;11.79;100.00;100037.19;5034487;28;20060;-45
2024/02/05 01:19:39;;;;;;;1.23;0.70;;;;;;;11.89;100.00;100016.91;5034420;28;20486;-44
2024/02/05 01:22:07;;;;;;;2.58;1.10;;;;;;;11.92;100.00;100014.00;5034209;28;20049;-42
2024/02/05 01:24:36;;;;;;;1.90;0.90;;;;;;;11.98;100.00;100028.78;5034396;28;20053;-44
2024/02/05 01:27:04;;;;;;;1.80;1.00;;;;;;;12.01;100.00;100024.06;5034136;28;20041;-43
2024/02/05 01:29:34;;;;;;;2.38;1.10;;;;;;;11.95;100.00;100023.63;5034035;28;20080;-43
2024/02/05 01:32:02;;;;;;;1.80;0.88;;;;;;;11.97;100.00;100030.59;5034051;28;20045;-45
2024/02/05 01:34:30;;;;;;;1.02;0.65;;;;;;;11.92;100.00;100024.72;5033774;28;20081;-44
2024/02/05 01:36:59;;;;;;;2.95;1.17;;;;;;;11.92;100.00;100023.84;5034073;28;20124;-45
2024/02/05 01:39:27;;;;;;;1.42;1.00;;;;;;;11.94;100.00;100009.41;5033927;28;20057;-43
2024/02/05 01:41:56;;;;;;;1.77;0.90;;;;;;;11.98;100.00;100018.94;5033887;28;20051;-44
2024/02/05 01:44:24;;;;;;;1.38;0.82;;;;;;;11.90;100.00;100007.94;5033697;28;20267;-45
2024/02/05 01:46:54;;;;;;;2.08;0.77;;;;;;;11.87;100.00;100005.47;5033746;28;20045;-43
2024/02/05 01:49:25;;;;;;;2.70;0.85;;;;;;;11.87;100.00;100008.16;5033988;28;20041;-48
2024/02/05 01:51:57;;;;;;;1.25;0.70;;;;;;;11.95;100.00;100019.13;5033912;28;20136;-43
2024/02/05 01:54:27;;;;;;;1.88;0.88;;;;;;;12.00;100.00;100030.38;5033812;28;20248;-43
2024/02/05 01:56:56;;;;;;;1.65;0.98;;;;;;;11.84;100.00;100011.00;5033634;28;20483;-44
2024/02/05 01:59:25;;;;;;;1.55;0.80;;;;;;;11.96;100.00;100026.19;5033680;28;20414;-44
2024/02/05 02:01:55;;;;;;;1.75;0.88;;;;;;;11.88;100.00;100023.22;5033608;28;20552;-44
2024/02/05 02:04:23;;;;;;;1.63;0.70;;;;;;;11.89;100.00;100024.94;5033557;28;20440;-43
2024/02/05 02:06:52;;;;;;;2.30;0.77;;;;;;;11.93;100.00;100037.09;5032321;28;20090;-43
2024/02/05 02:09:22;;;;;;;1.98;0.90;;;;;;;11.99;100.00;100025.16;5033606;28;20120;-45
2024/02/05 02:11:51;;;;;;;1.10;0.68;;;;;;;11.88;100.00;100027.72;5033471;28;20099;-43
2024/02/05 02:14:19;;;;;;;1.83;0.85;;;;;;;11.98;100.00;100010.94;5034381;28;20049;-45
2024/02/05 02:16:47;;;;;;;1.75;0.65;;;;;;;11.98;100.00;100012.75;5033710;28;20045;-43
2024/02/05 02:19:28;;;;;;;1.65;0.90;;;;;;;11.99;100.00;100020.66;5033538;28;20045;-43
2024/02/05 02:22:04;;;;;;;1.58;0.80;;;;;;;11.97;100.00;100019.91;5033311;28;20628;-43
2024/02/05 02:24:36;;;;;;;1.27;0.80;;;;;;;12.03;100.00;100027.50;5033386;28;20467;-44
2024/02/05 02:27:04;;;;;;;1.20;0.75;;;;;;;11.98;100.00;100023.44;5033323;28;20065;-43
2024/02/05 02:29:32;;;;;;;2.00;1.00;;;;;;;12.08;100.00;100042.38;5033105;28;20049;-45
2024/02/05 02:32:21;;;;;;;1.08;0.70;;;;;;;12.08;100.00;100021.84;5033028;28;20049;-44
2024/02/05 02:34:53;;;;;;;1.73;0.80;;;;;;;12.16;100.00;100015.94;5032812;28;20068;-44
2024/02/05 02:37:24;;;;;;;1.77;0.80;;;;;;;12.17;100.00;100015.00;5032662;28;20486;-44
2024/02/05 02:39:59;;;;;;;1.27;0.82;;;;;;;12.17;100.00;100001.63;5032851;28;20061;-43
2024/02/05 02:42:28;;;;;;;1.67;0.80;;;;;;;12.19;100.00;99999.69;5032840;28;20041;-44
2024/02/05 02:44:58;;;;;;;1.50;0.85;;;;;;;12.23;100.00;100011.88;5032758;28;20045;-43
2024/02/05 02:47:26;;;;;;;1.95;0.80;;;;;;;12.18;100.00;100006.00;5032500;28;20069;-45
2024/02/05 02:49:55;;;;;;;1.38;0.98;;;;;;;12.23;100.00;100006.50;5032759;28;20491;-44
2024/02/05 02:52:23;;;;;;;1.77;1.00;;;;;;;12.25;100.00;100004.56;5032586;28;20071;-43
2024/02/05 02:54:52;;;;;;;1.65;0.80;;;;;;;12.29;100.00;99995.41;5032834;28;20099;-45
2024/02/05 02:57:22;;;;;;;1.77;0.85;;;;;;;12.25;100.00;100004.56;5032779;28;20469;-44
2024/02/05 02:59:51;;;;;;;1.38;0.70;;;;;;;12.21;100.00;100000.44;5032560;28;20053;-44
2024/02/05 03:02:20;;;;;;;2.50;0.88;;;;;;;12.35;100.00;99992.25;5032289;28;20045;-45
2024/02/05 03:04:48;;;;;;;1.35;0.82;;;;;;;12.30;100.00;99991.75;5032606;28;20045;-44
2024/02/05 03:07:16;;;;;;;3.17;0.90;;;;;;;12.35;100.00;99992.25;5032279;28;20056;-44
2024/02/05 03:09:45;;;;;;;2.22;0.88;;;;;;;12.22;100.00;99983.41;5032258;28;20056;-44
2024/02/05 03:12:14;;;;;;;2.35;0.73;;;;;;;12.25;100.00;99991.22;5032279;28;20094;-44
2024/02/05 03:14:44;;;;;;;3.05;0.90;;;;;;;12.25;100.00;99977.84;5032094;28;20140;-44
2024/02/05 03:17:13;;;;;;;2.13;0.80;;;;;;;12.30;100.00;99970.34;5032151;28;20046;-44
2024/02/05 03:19:41;;;;;;;1.50;0.70;;;;;;;12.36;100.00;99961.91;5031853;28;20050;-44
2024/02/05 03:22:10;;;;;;;2.05;0.80;;;;;;;12.35;100.00;99960.16;5031988;28;20045;-42
2024/02/05 03:24:38;;;;;;;1.48;0.90;;;;;;;12.24;100.00;99974.31;5031877;28;20494;-44
2024/02/05 03:27:06;;;;;;;2.30;0.77;;;;;;;12.23;100.00;99955.72;5031871;28;20045;-43
2024/02/05 03:29:35;;;;;;;2.88;0.90;;;;;;;12.22;100.00;99992.28;5031721;28;20054;-43
2024/02/05 03:32:05;;;;;;;1.70;0.90;;;;;;;12.23;100.00;99979.78;5031669;28;20049;-44
2024/02/05 03:34:34;;;;;;;3.08;1.00;;;;;;;12.17;100.00;99966.88;5032118;28;20045;-45
2024/02/05 03:37:02;;;;;;;2.00;0.90;;;;;;;12.14;100.00;99967.06;5031588;28;20053;-44
2024/02/05 03:39:30;;;;;;;1.75;0.82;;;;;;;12.02;100.00;99966.97;5031504;28;20367;-44
2024/02/05 03:41:58;;;;;;;2.97;1.13;;;;;;;12.04;100.00;99978.41;5031700;28;20095;-44
2024/02/05 03:44:27;;;;;;;2.08;0.90;;;;;;;11.95;100.00;99971.03;5032988;28;20490;-45
2024/02/05 03:46:55;;;;;;;2.28;0.70;;;;;;;11.86;100.00;99989.53;5033646;28;20055;-45
2024/02/05 03:49:25;;;;;;;3.05;1.00;;;;;;;11.74;100.00;99986.72;5033527;28;20046;-49
2024/02/05 03:51:53;;;;;;;2.88;0.98;;;;;;;11.79;100.00;99981.06;5032331;28;20414;-43
2024/02/05 03:54:21;;;;;;;2.78;1.00;;;;;;;11.81;100.00;99989.84;5031564;28;20495;-45
2024/02/05 03:56:50;;;;;;;1.73;0.90;;;;;;;11.79;100.00;99989.09;5031754;28;20302;-45
2024/02/05 03:59:18;;;;;;;1.73;1.08;;;;;;;11.72;100.00;99996.66;5031395;28;20049;-45
2024/02/05 04:01:46;;;;;;;2.65;1.20;;;;;;;11.69;100.00;99993.34;5031385;28;20115;-45
2024/02/05 04:04:15;;;;;;;4.15;1.05;;;;;;;11.74;100.00;99991.19;5031301;28;20046;-45
2024/02/05 04:06:45;;;;;;;2.60;1.10;;;;;;;11.72;100.00;99985.13;5031263;28;20042;-45
2024/02/05 04:09:13;;;;;;;1.92;1.10;;;;;;;11.74;100.00;99984.03;5030921;28;20059;-45
2024/02/05 04:11:42;;;;;;;3.50;1.10;;;;;;;11.71;100.00;99978.06;5031271;28;20056;-45
2024/02/05 04:14:10;;;;;;;2.60;1.02;;;;;;;11.72;100.00;99980.63;5031349;28;20483;-44
2024/02/05 04:16:38;;;;;;;2.03;1.10;;;;;;;11.74;100.00;99988.53;5031288;28;20068;-44
2024/02/05 04:19:06;;;;;;;2.25;1.17;;;;;;;11.69;100.00;99990.69;5031040;28;20524;-42
2024/02/05 04:21:35;;;;;;;4.15;1.38;;;;;;;11.72;100.00;99963.75;5031006;28;20053;-46
2024/02/05 04:24:05;;;;;;;1.50;1.02;;;;;;;11.74;100.00;99968.00;5031053;28;20482;-45
2024/02/05 04:26:33;;;;;;;3.38;1.30;;;;;;;11.76;100.00;99986.59;5031182;28;20042;-44
2024/02/05 04:29:04;;;;;;;1.90;1.10;;;;;;;11.75;100.00;99971.53;5030568;28;20148;-44
2024/02/05 04:31:32;;;;;;;2.05;1.10;;;;;;;11.72;100.00;99969.94;5030809;28;20092;-46
2024/02/05 04:34:00;;;;;;;1.83;1.20;;;;;;;11.72;100.00;99977.09;5030825;28;20140;-44
2024/02/05 04:36:28;;;;;;;2.85;1.30;;;;;;;11.73;100.00;99968.97;5030871;28;20124;-43
2024/02/05 04:38:56;;;;;;;3.53;1.30;;;;;;;11.72;100.00;99969.94;5030769;28;20045;-45
2024/02/05 04:41:26;;;;;;;2.67;1.30;;;;;;;11.63;100.00;99967.06;5030636;28;20053;-44
2024/02/05 04:43:54;;;;;;;3.05;1.20;;;;;;;11.69;100.00;99967.50;5030414;28;20053;-46
2024/02/05 04:46:23;;;;;;;2.58;1.45;;;;;;;11.71;100.00;99962.03;5030630;28;20080;-44
2024/02/05 04:48:51;;;;;;;3.00;1.40;;;;;;;11.73;100.00;99952.94;5030501;28;20260;-43
2024/02/05 04:51:19;;;;;;;3.65;1.45;;;;;;;11.78;100.00;99952.63;5030856;28;20103;-44
2024/02/05 04:53:48;;;;;;;3.17;1.70;;;;;;;11.78;100.00;99938.44;5030908;28;20049;-43
2024/02/05 04:56:16;;;;;;;3.05;1.42;;;;;;;11.80;100.00;99945.41;5030836;28;20446;-43
2024/02/05 04:58:46;;;;;;;2.25;1.35;;;;;;;11.77;100.00;99940.22;5030833;28;20461;-45
2024/02/05 05:01:14;;;;;;;3.50;1.70;;;;;;;11.69;100.00;99955.94;5030506;28;20153;-46
2024/02/05 05:03:43;;;;;;;4.05;1.45;;;;;;;11.67;100.00;99947.16;5030847;28;20584;-45
2024/02/05 05:06:11;;;;;;;3.33;1.60;;;;;;;11.75;100.00;99951.00;5030900;28;20049;-44
2024/02/05 05:08:39;;;;;;;3.20;1.75;;;;;;;11.73;100.00;99950.28;5030686;28;20047;-43
2024/02/05 05:11:08;;;;;;;4.60;1.95;;;;;;;11.72;100.00;99945.03;5030607;28;20077;-43
2024/02/05 05:13:36;;;;;;;4.43;1.40;;;;;;;11.73;100.00;99954.75;5030354;28;20064;-43
2024/02/05 05:16:06;;;;;;;3.22;1.40;;;;;;;11.75;100.00;99948.34;5030236;28;20049;-43
2024/02/05 05:18:35;;;;;;;3.35;1.42;;;;;;;11.76;100.00;99959.88;5030468;28;20136;-45
2024/02/05 05:21:04;;;;;;;4.25;1.42;;;;;;;11.79;100.00;99956.16;5030425;28;20053;-44
2024/02/05 05:23:32;;;;;;;2.20;1.20;;;;;;;11.80;100.00;99958.75;5030637;28;20458;-48
2024/02/05 05:26:00;;;;;;;3.67;1.52;;;;;;;11.80;100.00;99966.78;5030639;28;20127;-44
2024/02/05 05:28:30;;;;;;;3.00;1.50;;;;;;;11.78;100.00;99968.66;5030346;28;20041;-45
2024/02/05 05:30:58;;;;;;;2.45;1.40;;;;;;;11.68;100.00;99973.78;5030532;28;20041;-43
2024/02/05 05:33:28;;;;;;;3.58;1.38;;;;;;;11.73;100.00;99962.78;5030567;28;20132;-44
2024/02/05 05:35:56;;;;;;;4.00;1.65;;;;;;;11.81;100.00;99972.97;5030186;28;20073;-43
2024/02/05 05:38:25;;;;;;;3.13;1.55;;;;;;;11.87;100.00;99978.75;5030168;28;20432;-44
2024/02/05 05:40:53;;;;;;;6.50;1.77;;;;;;;11.89;100.00;99987.50;5030098;28;20060;-45
2024/02/05 05:43:22;;;;;;;4.60;1.83;;;;;;;11.91;100.00;99980.25;5033331;28;20057;-43
2024/02/05 05:45:50;;;;;;;3.72;1.40;;;;;;;11.91;100.00;99985.59;5034167;28;20411;-43
2024/02/05 05:48:19;;;;;;;2.97;1.20;;;;;;;11.87;100.00;99991.22;5033965;28;20490;-43
2024/02/05 05:50:50;;;;;;;2.20;1.20;;;;;;;11.95;100.00;99995.09;5034127;28;20562;-44
2024/02/05 05:53:18;;;;;;;3.83;1.38;;;;;;;11.98;100.00;99992.22;5034584;28;20046;-43
2024/02/05 05:55:49;;;;;;;3.05;1.38;;;;;;;12.04;100.00;99996.25;5034718;28;20055;-50
2024/02/05 05:58:18;;;;;;;1.88;1.00;;;;;;;12.12;100.00;99991.22;5034818;28;20137;-41
2024/02/05 06:00:47;;;;;;;3.50;0.93;;;;;;;12.20;100.00;99996.91;5034054;28;20045;-43
2024/02/05 06:03:16;;;;;;;3.55;1.40;;;;;;;12.20;100.00;99998.72;5033823;28;20037;-43
2024/02/05 06:05:45;;;;;;;3.25;1.40;;;;;;;12.26;100.00;100012.53;5034563;28;20087;-47
2024/02/05 06:08:15;;;;;;;1.73;0.95;;;;;;;12.30;100.00;99999.78;5033411;28;20463;-45
2024/02/05 06:10:43;;;;;;;3.20;1.30;;;;;;;12.28;100.00;100009.72;5033726;28;20473;-44
2024/02/05 06:13:12;;;;;;;2.85;1.10;;;;;;;12.33;100.00;99995.03;5033629;28;20049;-46
2024/02/05 06:15:40;;;;;;;2.53;1.05;;;;;;;12.38;100.00;99989.38;5033546;28;20151;-44
2024/02/05 06:18:12;;;;;;;1.92;0.98;;;;;;;12.36;100.00;99990.47;5033570;28;20041;-44
2024/02/05 06:20:40;;;;;;;1.98;0.80;;;;;;;12.48;100.00;100003.81;5033441;28;20138;-46
2024/02/05 06:23:08;;;;;;;2.00;0.95;;;;;;;12.52;100.00;99999.94;5033252;28;20540;-44
2024/02/05 06:25:38;;;;;;;3.67;1.30;;;;;;;12.51;100.00;100011.59;5033708;28;20076;-44
2024/02/05 06:28:07;;;;;;;2.08;0.85;;;;;;;12.43;100.00;99991.72;5033253;28;20054;-44
2024/02/05 06:30:42;;;;;;;2.83;1.08;;;;;;;12.45;100.00;100009.41;5033222;28;20084;-43
2024/02/05 06:33:11;;;;;;;2.38;0.85;;;;;;;12.49;100.00;100002.84;5032996;28;20458;-46
2024/02/05 06:35:39;;;;;;;2.53;0.95;;;;;;;12.56;100.00;100000.59;5033287;28;20045;-44
2024/02/05 06:38:08;;;;;;;1.67;0.90;;;;;;;12.58;100.00;100002.19;5033029;28;20068;-44
2024/02/05 06:40:37;;;;;;;1.98;1.00;;;;;;;12.65;100.00;100013.31;5033084;28;20049;-44
2024/02/05 06:43:06;;;;;;;1.88;0.95;;;;;;;12.60;100.00;100005.59;5032811;28;20118;-43
2024/02/05 06:45:37;;;;;;;3.50;1.10;;;;;;;12.63;100.00;100004.50;5032760;28;20052;-44
2024/02/05 06:48:06;;;;;;;1.52;0.82;;;;;;;12.65;100.00;100020.47;5032736;28;20096;-44
2024/02/05 06:50:35;;;;;;;2.22;0.95;;;;;;;12.68;100.00;100012.22;5032663;28;20045;-44
2024/02/05 06:53:03;;;;;;;4.43;1.50;;;;;;;12.75;100.00;100018.84;5032265;28;20480;-44
2024/02/05 06:55:32;;;;;;;1.60;1.00;;;;;;;12.89;100.00;100016.00;5032979;28;20061;-44
2024/02/05 06:58:02;;;;;;;1.00;0.73;;;;;;;12.90;100.00;100023.91;5032767;28;20045;-44
2024/02/05 07:00:31;;;;;;;2.80;0.90;;;;;;;12.93;100.00;100011.25;5032580;28;20052;-44
2024/02/05 07:03:00;;;;;;;1.75;0.90;;;;;;;12.94;100.00;100019.22;5032946;28;20061;-44
2024/02/05 07:05:28;;;;;;;0.90;0.65;;;;;;;13.00;100.00;100013.38;5032543;28;20054;-45
2024/02/05 07:07:57;;;;;;;1.60;1.00;;;;;;;12.97;100.00;100005.59;5032748;28;20048;-44
2024/02/05 07:10:25;;;;;;;1.73;1.00;;;;;;;12.94;100.00;100011.19;5032706;28;20049;-43
2024/02/05 07:12:54;;;;;;;2.33;0.80;;;;;;;12.89;100.00;100035.59;5031213;28;20137;-45
2024/02/05 07:15:23;;;;;;;2.50;0.88;;;;;;;12.88;100.00;100046.41;5032271;28;20077;-43
2024/02/05 07:17:53;;;;;;;3.33;0.98;;;;;;;12.98;100.00;100057.31;5032508;28;20050;-43
2024/02/05 07:20:22;;;;;;;1.30;0.70;;;;;;;12.85;100.00;100038.63;5032188;28;20057;-44
2024/02/05 07:22:53;;;;;;;1.15;0.70;;;;;;;13.01;100.00;100057.91;5032449;28;20136;-43
2024/02/05 07:25:22;;;;;;;2.65;0.90;;;;;;;13.09;100.00;100027.91;5032318;28;20041;-44
2024/02/05 07:27:50;;;;;;;1.30;0.75;;;;;;;13.01;100.00;100052.56;5032087;28;20534;-44
2024/02/05 07:30:19;;;;;;;1.45;0.60;;;;;;;12.97;100.00;100058.28;5032382;28;20111;-45
2024/02/05 07:32:49;;;;;;;1.60;0.90;;;;;;;13.05;100.00;100058.56;5032303;28;20045;-45
2024/02/05 07:35:18;;;;;;;3.28;1.30;;;;;;;13.11;100.00;100072.34;5031707;28;20048;-44
2024/02/05 07:37:46;;;;;;;2.97;1.00;;;;;;;13.10;100.00;100057.25;5031949;28;20060;-45
2024/02/05 07:40:15;;;;;;;1.73;0.90;;;;;;;13.13;100.00;100051.69;5031948;28;20050;-44
2024/02/05 07:42:43;;;;;;;1.67;0.77;;;;;;;13.15;100.00;100054.25;5031764;28;20061;-44
2024/02/05 07:45:12;;;;;;;3.17;1.13;;;;;;;13.17;100.00;100041.59;5031789;28;20096;-45
2024/02/05 07:47:40;;;;;;;2.40;1.02;;;;;;;13.20;100.00;100045.88;5031757;28;20053;-44
2024/02/05 07:50:11;;;;;;;2.38;1.00;;;;;;;13.31;100.00;100048.63;5031767;28;20099;-45
2024/02/05 07:52:39;;;;;;;3.75;1.00;;;;;;;13.34;100.00;100053.78;5031417;28;20053;-44
2024/02/05 07:55:08;;;;;;;3.83;0.80;;;;;;;13.34;100.00;100053.78;5031334;28;20052;-42
2024/02/05 07:57:37;;;;;;;1.63;0.90;;;;;;;13.35;100.00;100056.31;5031259;28;20415;-44
2024/02/05 08:00:06;;;;;;;4.25;1.00;;;;;;;13.29;100.00;100061.28;5031234;28;20045;-44
2024/02/05 08:02:35;;;;;;;2.22;0.85;;;;;;;13.40;100.00;100053.28;5031236;28;20053;-43
2024/02/05 08:05:04;;;;;;;2.03;0.82;;;;;;;13.33;100.00;100052.91;5030531;28;20052;-43
2024/02/05 08:07:34;;;;;;;2.05;1.05;;;;;;;13.45;100.00;100059.19;5031408;28;20049;-44
2024/02/05 08:10:04;;;;;;;2.60;0.85;;;;;;;13.41;100.00;100071.06;5031681;28;20129;-44
2024/02/05 08:12:32;;;;;;;3.67;1.05;;;;;;;13.39;100.00;100063.16;5031603;28;20053;-44
2024/02/05 08:15:04;;;;;;;3.90;0.73;;;;;;;13.39;100.00;100073.00;5031176;28;20041;-45
2024/02/05 08:17:32;;;;;;;2.05;0.88;;;;;;;13.38;100.00;100079.34;5031368;28;20045;-44
2024/02/05 08:20:01;;;;;;;4.88;0.93;;;;;;;13.42;100.00;100084.38;5031219;28;20046;-44
2024/02/05 08:22:30;;;;;;;2.33;0.60;;;;;;;13.58;100.00;100089.44;5031312;28;20047;-43
2024/02/05 08:25:01;;;;;;;0.77;0.70;;;;;;;13.48;100.00;100085.72;5031664;28;20142;-44
2024/02/05 08:27:29;;;;;;;4.03;0.95;;;;;;;13.50;100.00;100099.84;5031070;28;20045;-44
2024/02/05 08:29:57;;;;;;;4.18;1.00;;;;;;;13.46;100.00;100090.34;5031003;28;20125;-45
2024/02/05 08:32:26;;;;;;;2.20;0.85;;;;;;;13.47;100.00;100116.16;5031190;28;20053;-44
2024/02/05 08:34:55;;;;;;;2.38;0.90;;;;;;;13.53;100.00;100102.34;5031111;28;20122;-44
2024/02/05 08:37:23;;;;;;;1.67;0.90;;;;;;;13.43;100.00;100120.06;5031133;28;20042;-44
2024/02/05 08:39:52;;;;;;;3.75;1.20;;;;;;;13.44;100.00;100109.22;5030857;28;20414;-43
2024/02/05 08:42:22;;;;;;;1.08;0.57;;;;;;;13.40;100.00;100112.22;5030741;28;20049;-44
2024/02/05 08:45:00;;;;;;;2.30;0.90;;;;;;;13.43;100.00;100114.72;5030772;28;20057;-43
2024/02/05 08:47:31;;;;;;;2.53;1.02;;;;;;;13.38;100.00;100120.38;5030863;28;20514;-45
2024/02/05 08:50:00;;;;;;;2.03;0.70;;;;;;;13.45;100.00;100126.16;5030763;28;20045;-43
2024/02/05 08:52:29;;;;;;;3.83;0.90;;;;;;;13.49;100.00;100122.28;5030396;28;20045;-42
2024/02/05 08:54:57;;;;;;;2.97;0.93;;;;;;;13.46;100.00;100134.06;5030781;28;20410;-43
2024/02/05 08:57:26;;;;;;;2.33;0.90;;;;;;;13.51;100.00;100122.16;5030574;28;20045;-44
2024/02/05 08:59:54;;;;;;;3.50;0.70;;;;;;;13.47;100.00;100124.22;5030500;28;20149;-43
2024/02/05 09:02:23;;;;;;;0.60;0.40;;;;;;;13.52;100.00;100132.78;5030561;28;20056;-43
2024/02/05 09:04:51;;;;;;;4.80;1.10;;;;;;;13.54;100.00;100132.66;5030819;28;20470;-44
2024/02/05 09:07:21;;;;;;;2.08;0.75;;;;;;;13.47;100.00;100153.69;5030673;28;20049;-44
2024/02/05 09:09:50;;;;;;;1.85;0.82;;;;;;;13.56;100.00;100144.97;5030716;28;20042;-45
2024/02/05 09:12:18;;;;;;;3.67;0.70;;;;;;;13.57;100.00;100135.97;5030372;28;20449;-44
2024/02/05 09:14:49;;;;;;;2.85;0.82;;;;;;;13.54;100.00;100148.75;5030747;28;20056;-43
2024/02/05 09:17:18;;;;;;;2.20;0.73;;;;;;;13.53;100.00;100157.75;5034023;28;20099;-44
2024/02/05 09:19:46;;;;;;;5.85;1.35;;;;;;;13.64;100.00;100153.31;5034887;28;20052;-44
2024/02/05 09:22:15;;;;;;;3.70;0.82;;;;;;;13.60;100.00;100154.47;5034508;28;20053;-42
2024/02/05 09:24:44;;;;;;;4.43;1.02;;;;;;;13.68;100.00;100157.44;5034422;28;20053;-42
2024/02/05 09:27:12;;;;;;;1.88;0.75;;;;;;;13.69;100.00;100151.13;5034463;28;20052;-43
2024/02/05 09:29:41;;;;;;;1.98;0.75;;;;;;;13.51;100.00;100147.16;5034584;28;20050;-42
2024/02/05 09:32:11;;;;;;;3.75;1.05;;;;;;;13.64;100.00;100147.09;5034556;28;20049;-44
2024/02/05 09:34:40;;;;;;;6.00;0.90;;;;;;;13.69;100.00;100140.41;5034329;28;20056;-44
2024/02/05 09:37:08;;;;;;;3.05;0.73;;;;;;;13.51;100.00;100148.94;5034241;28;20545;-41
2024/02/05 09:39:37;;;;;;;3.33;0.90;;;;;;;13.28;100.00;100156.00;5033911;28;20114;-42
2024/02/05 09:42:10;;;;;;;1.92;0.82;;;;;;;13.30;100.00;100148.69;5033674;28;20103;-43
2024/02/05 09:44:39;;;;;;;;;;;;;;;13.18;100.00;100158.47;5034643;28;20046;-45
2024/02/05 09:47:08;;;;;;;3.15;0.77;;;;;;;13.14;100.00;100155.16;5034370;28;20374;-44
2024/02/05 09:49:38;;;;;;;2.63;0.73;;;;;;;13.16;100.00;100145.19;5034400;28;20072;-44
2024/02/05 09:52:07;;;;;;;1.63;0.73;;;;;;;13.26;100.00;100136.50;5034392;28;20918;-45
2024/02/05 09:54:41;;;;;;;2.10;0.88;;;;;;;13.26;100.00;100141.88;5034357;28;20447;-42
2024/02/05 09:57:10;;;;;;;3.03;0.90;;;;;;;13.36;100.00;100148.25;5033917;28;20049;-44
2024/02/05 09:59:40;;;;;;;1.77;0.82;;;;;;;13.49;100.00;100138.34;5033431;28;20052;-44
2024/02/05 10:02:09;;;;;;;4.03;1.30;;;;;;;13.71;100.00;100141.16;5033379;28;20056;-43
2024/02/05 10:04:44;;;;;;;10.23;1.40;;;;;;;13.91;100.00;100136.13;5033466;28;20045;-43
2024/02/05 10:07:14;;;;;;;10.05;1.48;;;;;;;14.00;100.00;100143.47;5033782;28;20103;-45
2024/02/05 10:09:43;;;;;;;6.68;1.33;;;;;;;14.09;100.00;100140.09;5033530;28;20068;-43
2024/02/05 10:12:13;;;;;;;3.80;1.13;;;;;;;14.04;100.00;100134.22;5033364;28;20110;-45
2024/02/05 10:14:42;;;;;;;12.00;1.98;;;;;;;14.15;100.00;100126.19;5033470;28;20504;-45
2024/02/05 10:17:11;;;;;;;3.95;1.08;;;;;;;14.06;100.00;100132.25;5033650;28;20133;-45
2024/02/05 10:19:39;;;;;;;2.97;0.95;;;;;;;14.05;100.00;100130.53;5033554;28;20045;-45
2024/02/05 10:22:09;;;;;;;2.63;0.90;;;;;;;14.02;100.00;100141.53;5033460;28;20052;-43
2024/02/05 10:24:39;;;;;;;4.38;0.60;;;;;;;13.93;100.00;100140.38;5033665;28;20064;-45
2024/02/05 10:27:08;;;;;;;4.20;0.60;;;;;;;13.97;100.00;100124.91;5033490;28;20045;-44
2024/02/05 10:29:38;;;;;;;2.67;0.60;;;;;;;14.09;100.00;100121.31;5033341;28;20050;-42
2024/02/05 10:32:07;;;;;;;4.35;0.90;;;;;;;14.19;100.00;100098.16;5033667;28;20045;-42
2024/02/05 10:34:35;;;;;;;3.55;0.70;;;;;;;14.22;100.00;100111.34;5033191;28;20057;-44
2024/02/05 10:37:05;;;;;;;2.35;0.73;;;;;;;14.18;100.00;100109.00;5033006;28;20046;-44
2024/02/05 10:39:35;;;;;;;3.42;0.80;;;;;;;14.27;100.00;100117.19;5032817;28;20041;-44
2024/02/05 10:42:04;;;;;;;5.20;0.90;;;;;;;14.31;100.00;100139.28;5033084;28;20077;-44
2024/02/05 10:44:32;;;;;;;2.55;0.70;;;;;;;14.40;100.00;100135.03;5032850;28;20511;-46
2024/02/05 10:47:09;;;;;;;1.88;0.70;;;;;;;14.27;100.00;100125.22;5033230;28;20045;-46
2024/02/05 10:49:40;;;;;;;4.68;0.60;;;;;;;14.30;100.00;100119.66;5033160;28;20046;-46
2024/02/05 10:52:10;;;;;;;1.83;0.43;;;;;;;14.31;100.00;100123.19;5032984;28;20049;-44
2024/02/05 10:54:46;;;;;;;5.60;0.75;;;;;;;14.30;100.00;100121.47;5032925;28;20076;-44
2024/02/05 10:57:18;;;;;;;4.85;0.85;;;;;;;14.39;100.00;100119.91;5032616;28;20056;-44
2024/02/05 10:59:46;;;;;;;6.45;1.25;;;;;;;14.33;100.00;100105.97;5032677;28;20045;-44
2024/02/05 11:02:20;;;;;;;1.25;0.50;;;;;;;14.23;100.00;100115.72;5032728;28;20053;-44
2024/02/05 11:04:52;;;;;;;1.92;0.63;;;;;;;14.30;100.00;100097.34;5032696;28;20053;-43
2024/02/05 11:07:24;;;;;;;1.95;0.50;;;;;;;14.31;100.00;100118.66;5032486;28;20087;-43
2024/02/05 11:09:54;;;;;;;3.90;0.77;;;;;;;14.28;100.00;100126.97;5028666;28;20080;-44
2024/02/05 11:12:25;;;;;;;2.90;0.60;;;;;;;14.09;100.00;100115.06;5031545;28;20073;-45
2024/02/05 11:15:01;;;;;;;1.75;0.60;;;;;;;14.21;100.00;100120.34;5030961;28;20045;-44
2024/02/05 11:17:31;;;;;;;0.93;0.43;;;;;;;14.27;100.00;100135.97;5023963;28;20057;-44
2024/02/05 11:19:59;;;;;;;2.47;0.50;;;;;;;14.25;100.00;100116.44;5031236;28;20049;-43
2024/02/05 11:22:28;;;;;;;2.45;0.55;;;;;;;14.19;100.00;100125.00;5031422;28;20045;-42
2024/02/05 11:24:58;;;;;;;3.90;0.73;;;;;;;14.17;100.00;100129.59;5030149;28;20058;-43
2024/02/05 11:27:27;;;;;;;2.85;0.88;;;;;;;14.26;100.00;100128.88;5031259;28;20387;-43